Labrea, Brazil
Current Conditions -  °F | °C
As of 1:00 AM on Friday 21 Nov 2014 (Local Time) from SBPV Reporting Station
Broken Clouds Broken Clouds  
Wind Chill: 77°   Ceiling: 10000
Heat Index: 79°   Visibility: 6mi
Dew Point: 70°   Wind: 2mph
Humidity: 78%   Direction: 60°ENE
Pressure: 29.8"   Gusts: NA
Location:  7.26°S, 64.81°W
Report Text: SBPV 210500Z 06002KT 9999 SCT015 FEW020TCU BKN100 25/21 Q1009
Loading
Personal Weather Stations






























Interactive Weather Map New forecast layout! Learn more

10-Day Weather Forecast

Advertisements
Track Severe Weather on mobile